• Join FlightAware (Why Join?)
  • Login
  • US Flag 
03:04AM EDT


 

Airport Tracker/Info


-or-


 

Live Flight TrackerFlight Track Log ✈ EJM53 ✈ 06-Jul-2013 ✈ KBED - KACK

Flight Track Log - Related Links

Times and Time Zones

All times are in EDT time to prevent confusion due to time zone crossing. See the EJM53 flight status page for this flight to view local times or setup timezone preferences in your user account.

Time Position Orientation Groundspeed Altitude Reporting Facility
EDT Latitude Longitude Course Direction KTS MPH feet Rate Location/Type
08:47AM 42.4667 -71.3167 115° Southeast 177 204 1,200  Level KA90
08:48AM 42.4167 -71.3833 225° Southwest 218 251 3,600 2,040 Climbing KA90
08:49AM 42.3667 -71.3667 166° South 218 251 5,600 2,340 Climbing KA90
08:50AM 42.3167 -71.3333 154° Southeast 255 293 8,100 1,620 Climbing KA90
08:51AM 42.2500 -71.2500 137° Southeast 316 364 8,900 360 Climbing KA90
08:52AM 42.1833 -71.1667 137° Southeast 322 371 8,900  Level KA90
08:53AM 42.2198 -70.5992 115° Southeast  Level FlightAware Approximate
08:54AM 42.1049 -71.0717 138° Southeast  Level Estimated
09:01AM 41.6119 -70.4817 138° Southeast  Level Estimated
09:02AM 41.5412 -70.3981 138° Southeast  Level Estimated
09:03AM 41.4704 -70.3148 139° Southeast  Level Estimated
09:04AM 41.3996 -70.2316 139° Southeast  Level Estimated
09:05AM 41.3287 -70.1486 139° Southeast  Level Estimated
09:06AM 41.2578 -70.0658 139° Southeast  Level Estimated
09:07AM 41.2531 -70.0603 139° Southeast  Level Estimated
09:08AM 41.2531 -70.0603 72° East  Level Estimated
09:09AM 41.2531 -70.0603 72° East  Level Estimated
09:10AM 41.2531 -70.0603 72° East  Level Estimated
09:11AM 41.2531 -70.0603 72° East  Level Estimated
09:12AM 41.2531 -70.0603 72° East  Level Estimated
09:13AM 41.2531 -70.0603 72° East  Level Estimated
09:14AM 41.2531 -70.0603 72° East  Level Estimated
09:15AM 41.2531 -70.0603 72° East  Level Estimated
09:16AM 41.2531 -70.0603 72° East  Level Estimated
09:17AM 41.2531 -70.0603 72° East  Level Estimated